sensor_id;sensor_type;location;lat;lon;timestamp;P1;durP1;ratioP1;P2;durP2;ratioP2
12925;SDS011;6529;50.566;9.774;2022-10-13T00:00:45;13.53;;;9.07;;
12925;SDS011;6529;50.566;9.774;2022-10-13T00:03:12;14.07;;;9.53;;
12925;SDS011;6529;50.566;9.774;2022-10-13T00:05:42;11.40;;;8.93;;
12925;SDS011;6529;50.566;9.774;2022-10-13T00:08:09;13.23;;;8.63;;
12925;SDS011;6529;50.566;9.774;2022-10-13T00:10:36;13.23;;;8.90;;
12925;SDS011;6529;50.566;9.774;2022-10-13T00:13:02;10.90;;;8.40;;
12925;SDS011;6529;50.566;9.774;2022-10-13T00:15:28;14.67;;;8.23;;
12925;SDS011;6529;50.566;9.774;2022-10-13T00:17:55;11.13;;;8.63;;
12925;SDS011;6529;50.566;9.774;2022-10-13T00:20:21;9.80;;;7.93;;
12925;SDS011;6529;50.566;9.774;2022-10-13T00:22:47;14.43;;;8.40;;
12925;SDS011;6529;50.566;9.774;2022-10-13T00:25:12;9.70;;;7.63;;
12925;SDS011;6529;50.566;9.774;2022-10-13T00:27:38;11.10;;;8.40;;
12925;SDS011;6529;50.566;9.774;2022-10-13T00:30:05;11.43;;;7.93;;
12925;SDS011;6529;50.566;9.774;2022-10-13T00:32:31;12.33;;;7.77;;
12925;SDS011;6529;50.566;9.774;2022-10-13T00:34:57;11.07;;;7.90;;
12925;SDS011;6529;50.566;9.774;2022-10-13T00:37:23;11.27;;;7.53;;
12925;SDS011;6529;50.566;9.774;2022-10-13T00:39:49;10.37;;;7.80;;
12925;SDS011;6529;50.566;9.774;2022-10-13T00:42:15;12.60;;;8.33;;
12925;SDS011;6529;50.566;9.774;2022-10-13T00:47:34;10.80;;;7.80;;
12925;SDS011;6529;50.566;9.774;2022-10-13T00:50:01;10.63;;;8.13;;
12925;SDS011;6529;50.566;9.774;2022-10-13T00:52:27;12.97;;;8.60;;
12925;SDS011;6529;50.566;9.774;2022-10-13T00:54:54;13.80;;;8.90;;
12925;SDS011;6529;50.566;9.774;2022-10-13T00:57:20;15.60;;;9.57;;
12925;SDS011;6529;50.566;9.774;2022-10-13T00:59:47;12.60;;;9.00;;
12925;SDS011;6529;50.566;9.774;2022-10-13T01:02:13;12.77;;;9.83;;
12925;SDS011;6529;50.566;9.774;2022-10-13T01:04:40;11.10;;;8.60;;
12925;SDS011;6529;50.566;9.774;2022-10-13T01:07:08;12.83;;;9.33;;
12925;SDS011;6529;50.566;9.774;2022-10-13T01:09:35;11.77;;;8.70;;
12925;SDS011;6529;50.566;9.774;2022-10-13T01:17:19;14.50;;;9.47;;
12925;SDS011;6529;50.566;9.774;2022-10-13T01:22:30;15.30;;;9.30;;
12925;SDS011;6529;50.566;9.774;2022-10-13T01:30:37;16.00;;;9.80;;
12925;SDS011;6529;50.566;9.774;2022-10-13T01:35:59;14.30;;;9.20;;
12925;SDS011;6529;50.566;9.774;2022-10-13T01:38:44;12.63;;;8.57;;
12925;SDS011;6529;50.566;9.774;2022-10-13T01:43:42;12.53;;;8.77;;
12925;SDS011;6529;50.566;9.774;2022-10-13T01:48:37;13.30;;;9.60;;
12925;SDS011;6529;50.566;9.774;2022-10-13T01:51:04;13.13;;;9.50;;
12925;SDS011;6529;50.566;9.774;2022-10-13T01:53:31;23.63;;;10.20;;
12925;SDS011;6529;50.566;9.774;2022-10-13T01:55:58;13.23;;;9.87;;
12925;SDS011;6529;50.566;9.774;2022-10-13T01:58:24;15.03;;;10.13;;
12925;SDS011;6529;50.566;9.774;2022-10-13T02:01:06;15.60;;;10.40;;
12925;SDS011;6529;50.566;9.774;2022-10-13T02:03:40;11.77;;;9.73;;
12925;SDS011;6529;50.566;9.774;2022-10-13T02:06:31;12.67;;;9.70;;
12925;SDS011;6529;50.566;9.774;2022-10-13T02:09:00;12.93;;;10.00;;
12925;SDS011;6529;50.566;9.774;2022-10-13T02:11:27;14.30;;;9.87;;
12925;SDS011;6529;50.566;9.774;2022-10-13T02:16:50;14.13;;;10.23;;
12925;SDS011;6529;50.566;9.774;2022-10-13T02:19:18;15.17;;;11.13;;
12925;SDS011;6529;50.566;9.774;2022-10-13T02:21:44;14.30;;;10.37;;
12925;SDS011;6529;50.566;9.774;2022-10-13T02:24:11;16.47;;;10.73;;
12925;SDS011;6529;50.566;9.774;2022-10-13T02:26:37;15.90;;;11.10;;
12925;SDS011;6529;50.566;9.774;2022-10-13T02:29:22;18.83;;;10.60;;
12925;SDS011;6529;50.566;9.774;2022-10-13T02:31:48;27.87;;;11.20;;
12925;SDS011;6529;50.566;9.774;2022-10-13T02:34:14;25.83;;;12.07;;
12925;SDS011;6529;50.566;9.774;2022-10-13T02:36:40;19.67;;;11.23;;
12925;SDS011;6529;50.566;9.774;2022-10-13T02:39:07;22.03;;;11.50;;
12925;SDS011;6529;50.566;9.774;2022-10-13T02:41:33;16.50;;;10.60;;
12925;SDS011;6529;50.566;9.774;2022-10-13T02:43:59;14.27;;;9.83;;
12925;SDS011;6529;50.566;9.774;2022-10-13T02:46:25;13.80;;;9.83;;
12925;SDS011;6529;50.566;9.774;2022-10-13T02:48:51;11.67;;;8.40;;
12925;SDS011;6529;50.566;9.774;2022-10-13T02:51:17;13.93;;;9.27;;
12925;SDS011;6529;50.566;9.774;2022-10-13T02:53:43;14.60;;;9.57;;
12925;SDS011;6529;50.566;9.774;2022-10-13T02:56:09;14.20;;;10.07;;
12925;SDS011;6529;50.566;9.774;2022-10-13T02:58:35;15.67;;;10.10;;
12925;SDS011;6529;50.566;9.774;2022-10-13T03:01:05;23.27;;;11.50;;
12925;SDS011;6529;50.566;9.774;2022-10-13T03:03:31;28.87;;;11.40;;
12925;SDS011;6529;50.566;9.774;2022-10-13T03:05:57;18.73;;;9.57;;
12925;SDS011;6529;50.566;9.774;2022-10-13T03:08:23;23.17;;;10.30;;
12925;SDS011;6529;50.566;9.774;2022-10-13T03:10:49;18.67;;;9.90;;
12925;SDS011;6529;50.566;9.774;2022-10-13T03:13:15;16.70;;;9.80;;
12925;SDS011;6529;50.566;9.774;2022-10-13T03:15:41;16.60;;;10.07;;
12925;SDS011;6529;50.566;9.774;2022-10-13T03:18:07;15.87;;;10.43;;
12925;SDS011;6529;50.566;9.774;2022-10-13T03:20:33;17.67;;;10.57;;
12925;SDS011;6529;50.566;9.774;2022-10-13T03:22:59;15.73;;;10.57;;
12925;SDS011;6529;50.566;9.774;2022-10-13T03:25:25;23.00;;;12.03;;
12925;SDS011;6529;50.566;9.774;2022-10-13T03:27:51;23.43;;;10.87;;
12925;SDS011;6529;50.566;9.774;2022-10-13T03:30:17;20.17;;;11.30;;
12925;SDS011;6529;50.566;9.774;2022-10-13T03:32:43;18.43;;;11.07;;
12925;SDS011;6529;50.566;9.774;2022-10-13T03:35:09;30.23;;;11.17;;
12925;SDS011;6529;50.566;9.774;2022-10-13T03:37:35;15.90;;;10.43;;
12925;SDS011;6529;50.566;9.774;2022-10-13T03:40:01;17.17;;;10.13;;
12925;SDS011;6529;50.566;9.774;2022-10-13T03:42:27;23.83;;;11.30;;
12925;SDS011;6529;50.566;9.774;2022-10-13T03:44:53;27.73;;;12.43;;
12925;SDS011;6529;50.566;9.774;2022-10-13T03:47:19;20.47;;;11.80;;
12925;SDS011;6529;50.566;9.774;2022-10-13T03:49:45;20.40;;;11.03;;
12925;SDS011;6529;50.566;9.774;2022-10-13T03:52:11;27.87;;;11.73;;
12925;SDS011;6529;50.566;9.774;2022-10-13T03:54:37;21.30;;;11.80;;
12925;SDS011;6529;50.566;9.774;2022-10-13T03:57:03;38.13;;;12.47;;
12925;SDS011;6529;50.566;9.774;2022-10-13T03:59:29;31.37;;;12.13;;
12925;SDS011;6529;50.566;9.774;2022-10-13T04:01:55;43.60;;;12.90;;
12925;SDS011;6529;50.566;9.774;2022-10-13T04:04:21;37.23;;;12.40;;
12925;SDS011;6529;50.566;9.774;2022-10-13T04:06:47;33.40;;;11.33;;
12925;SDS011;6529;50.566;9.774;2022-10-13T04:09:13;29.80;;;12.03;;
12925;SDS011;6529;50.566;9.774;2022-10-13T04:11:39;17.80;;;11.33;;
12925;SDS011;6529;50.566;9.774;2022-10-13T04:14:05;20.20;;;11.43;;
12925;SDS011;6529;50.566;9.774;2022-10-13T04:16:31;36.10;;;11.83;;
12925;SDS011;6529;50.566;9.774;2022-10-13T04:19:01;38.90;;;11.87;;
12925;SDS011;6529;50.566;9.774;2022-10-13T04:21:27;34.13;;;11.50;;
12925;SDS011;6529;50.566;9.774;2022-10-13T04:23:54;22.90;;;11.57;;
12925;SDS011;6529;50.566;9.774;2022-10-13T04:26:24;18.20;;;10.83;;
12925;SDS011;6529;50.566;9.774;2022-10-13T04:28:51;26.17;;;11.50;;
12925;SDS011;6529;50.566;9.774;2022-10-13T04:31:18;21.43;;;10.37;;
12925;SDS011;6529;50.566;9.774;2022-10-13T04:33:46;16.30;;;11.50;;
12925;SDS011;6529;50.566;9.774;2022-10-13T04:36:12;15.90;;;11.00;;
12925;SDS011;6529;50.566;9.774;2022-10-13T04:38:39;17.97;;;10.73;;
12925;SDS011;6529;50.566;9.774;2022-10-13T04:41:05;25.40;;;12.50;;
12925;SDS011;6529;50.566;9.774;2022-10-13T04:43:31;19.03;;;11.57;;
12925;SDS011;6529;50.566;9.774;2022-10-13T04:48:27;20.17;;;10.93;;
12925;SDS011;6529;50.566;9.774;2022-10-13T04:51:00;18.40;;;10.87;;
12925;SDS011;6529;50.566;9.774;2022-10-13T04:53:27;14.93;;;10.70;;
12925;SDS011;6529;50.566;9.774;2022-10-13T04:55:54;15.13;;;10.93;;
12925;SDS011;6529;50.566;9.774;2022-10-13T04:58:20;14.63;;;10.47;;
12925;SDS011;6529;50.566;9.774;2022-10-13T05:00:46;13.77;;;10.77;;
12925;SDS011;6529;50.566;9.774;2022-10-13T05:03:12;14.80;;;10.53;;
12925;SDS011;6529;50.566;9.774;2022-10-13T05:05:38;13.93;;;10.17;;
12925;SDS011;6529;50.566;9.774;2022-10-13T05:08:06;17.20;;;11.33;;
12925;SDS011;6529;50.566;9.774;2022-10-13T05:10:32;15.90;;;10.90;;
12925;SDS011;6529;50.566;9.774;2022-10-13T05:12:58;16.30;;;11.17;;
12925;SDS011;6529;50.566;9.774;2022-10-13T05:15:24;13.93;;;10.83;;
12925;SDS011;6529;50.566;9.774;2022-10-13T05:17:50;13.90;;;10.60;;
12925;SDS011;6529;50.566;9.774;2022-10-13T05:20:16;12.57;;;9.97;;
12925;SDS011;6529;50.566;9.774;2022-10-13T05:22:42;14.63;;;10.97;;
12925;SDS011;6529;50.566;9.774;2022-10-13T05:25:08;14.70;;;10.73;;
12925;SDS011;6529;50.566;9.774;2022-10-13T05:27:34;14.73;;;10.80;;
12925;SDS011;6529;50.566;9.774;2022-10-13T05:30:00;17.00;;;10.83;;
12925;SDS011;6529;50.566;9.774;2022-10-13T05:32:26;13.27;;;10.13;;
12925;SDS011;6529;50.566;9.774;2022-10-13T05:34:52;14.03;;;10.00;;
12925;SDS011;6529;50.566;9.774;2022-10-13T05:37:18;13.70;;;9.97;;
12925;SDS011;6529;50.566;9.774;2022-10-13T05:39:46;14.13;;;10.47;;
12925;SDS011;6529;50.566;9.774;2022-10-13T05:42:12;13.33;;;9.73;;
12925;SDS011;6529;50.566;9.774;2022-10-13T05:44:38;13.47;;;10.13;;
12925;SDS011;6529;50.566;9.774;2022-10-13T05:47:04;13.27;;;9.97;;
12925;SDS011;6529;50.566;9.774;2022-10-13T05:49:30;12.27;;;9.37;;
12925;SDS011;6529;50.566;9.774;2022-10-13T05:51:58;12.40;;;9.33;;
12925;SDS011;6529;50.566;9.774;2022-10-13T05:54:26;12.43;;;8.87;;
12925;SDS011;6529;50.566;9.774;2022-10-13T05:57:17;12.97;;;9.43;;
12925;SDS011;6529;50.566;9.774;2022-10-13T05:59:46;13.13;;;9.47;;
12925;SDS011;6529;50.566;9.774;2022-10-13T06:02:13;13.40;;;9.60;;
12925;SDS011;6529;50.566;9.774;2022-10-13T06:04:42;13.27;;;9.20;;
12925;SDS011;6529;50.566;9.774;2022-10-13T06:07:10;13.67;;;9.77;;
12925;SDS011;6529;50.566;9.774;2022-10-13T06:09:36;13.10;;;9.40;;
12925;SDS011;6529;50.566;9.774;2022-10-13T06:12:03;13.20;;;9.30;;
12925;SDS011;6529;50.566;9.774;2022-10-13T06:14:30;13.07;;;9.87;;
12925;SDS011;6529;50.566;9.774;2022-10-13T06:16:56;13.43;;;10.47;;
12925;SDS011;6529;50.566;9.774;2022-10-13T06:19:22;15.83;;;10.30;;
12925;SDS011;6529;50.566;9.774;2022-10-13T06:21:48;13.57;;;9.93;;
12925;SDS011;6529;50.566;9.774;2022-10-13T06:24:14;12.67;;;9.97;;
12925;SDS011;6529;50.566;9.774;2022-10-13T06:26:40;14.27;;;10.03;;
12925;SDS011;6529;50.566;9.774;2022-10-13T06:29:06;12.80;;;9.47;;
12925;SDS011;6529;50.566;9.774;2022-10-13T06:31:32;11.70;;;9.27;;
12925;SDS011;6529;50.566;9.774;2022-10-13T06:33:58;12.50;;;9.57;;
12925;SDS011;6529;50.566;9.774;2022-10-13T06:36:24;14.93;;;9.90;;
12925;SDS011;6529;50.566;9.774;2022-10-13T06:38:50;13.30;;;10.00;;
12925;SDS011;6529;50.566;9.774;2022-10-13T06:41:16;13.97;;;10.27;;
12925;SDS011;6529;50.566;9.774;2022-10-13T06:43:43;12.53;;;10.33;;
12925;SDS011;6529;50.566;9.774;2022-10-13T06:46:09;15.27;;;9.80;;
12925;SDS011;6529;50.566;9.774;2022-10-13T06:48:35;14.97;;;10.37;;
12925;SDS011;6529;50.566;9.774;2022-10-13T06:51:02;13.40;;;10.10;;
12925;SDS011;6529;50.566;9.774;2022-10-13T06:53:28;15.07;;;9.57;;
12925;SDS011;6529;50.566;9.774;2022-10-13T06:55:58;16.87;;;10.63;;
12925;SDS011;6529;50.566;9.774;2022-10-13T06:58:24;14.60;;;9.80;;
12925;SDS011;6529;50.566;9.774;2022-10-13T07:00:51;15.93;;;10.63;;
12925;SDS011;6529;50.566;9.774;2022-10-13T07:03:17;18.20;;;11.07;;
12925;SDS011;6529;50.566;9.774;2022-10-13T07:05:43;15.17;;;11.00;;
12925;SDS011;6529;50.566;9.774;2022-10-13T07:08:09;17.97;;;11.40;;
12925;SDS011;6529;50.566;9.774;2022-10-13T07:10:38;18.17;;;12.77;;
12925;SDS011;6529;50.566;9.774;2022-10-13T07:13:04;13.13;;;9.27;;
12925;SDS011;6529;50.566;9.774;2022-10-13T07:15:30;16.37;;;10.13;;
12925;SDS011;6529;50.566;9.774;2022-10-13T07:17:56;16.07;;;11.53;;
12925;SDS011;6529;50.566;9.774;2022-10-13T07:20:24;16.30;;;11.93;;
12925;SDS011;6529;50.566;9.774;2022-10-13T07:22:53;17.80;;;11.03;;
12925;SDS011;6529;50.566;9.774;2022-10-13T07:25:19;16.43;;;10.93;;
12925;SDS011;6529;50.566;9.774;2022-10-13T07:27:45;15.63;;;11.13;;
12925;SDS011;6529;50.566;9.774;2022-10-13T07:30:11;14.60;;;10.50;;
12925;SDS011;6529;50.566;9.774;2022-10-13T07:32:38;17.63;;;11.10;;
12925;SDS011;6529;50.566;9.774;2022-10-13T07:35:06;16.40;;;11.77;;
12925;SDS011;6529;50.566;9.774;2022-10-13T07:37:32;16.63;;;11.50;;
12925;SDS011;6529;50.566;9.774;2022-10-13T07:39:58;19.50;;;11.60;;
12925;SDS011;6529;50.566;9.774;2022-10-13T07:42:24;15.83;;;12.43;;
12925;SDS011;6529;50.566;9.774;2022-10-13T07:44:50;19.77;;;13.23;;
12925;SDS011;6529;50.566;9.774;2022-10-13T07:47:16;20.33;;;12.60;;
12925;SDS011;6529;50.566;9.774;2022-10-13T07:49:42;18.67;;;12.63;;
12925;SDS011;6529;50.566;9.774;2022-10-13T07:52:08;18.83;;;13.00;;
12925;SDS011;6529;50.566;9.774;2022-10-13T07:54:34;21.23;;;13.43;;
12925;SDS011;6529;50.566;9.774;2022-10-13T07:57:00;19.77;;;12.93;;
12925;SDS011;6529;50.566;9.774;2022-10-13T07:59:27;21.17;;;13.67;;
12925;SDS011;6529;50.566;9.774;2022-10-13T08:01:53;21.17;;;13.80;;
12925;SDS011;6529;50.566;9.774;2022-10-13T08:04:19;20.47;;;13.07;;
12925;SDS011;6529;50.566;9.774;2022-10-13T08:06:45;20.60;;;13.07;;
12925;SDS011;6529;50.566;9.774;2022-10-13T08:09:11;19.60;;;12.87;;
12925;SDS011;6529;50.566;9.774;2022-10-13T08:11:37;20.87;;;13.80;;
12925;SDS011;6529;50.566;9.774;2022-10-13T08:14:03;21.03;;;14.10;;
12925;SDS011;6529;50.566;9.774;2022-10-13T08:16:30;23.60;;;13.90;;
12925;SDS011;6529;50.566;9.774;2022-10-13T08:18:57;28.37;;;17.00;;
12925;SDS011;6529;50.566;9.774;2022-10-13T08:21:23;29.17;;;18.07;;
12925;SDS011;6529;50.566;9.774;2022-10-13T08:23:49;26.53;;;14.57;;
12925;SDS011;6529;50.566;9.774;2022-10-13T08:26:16;31.73;;;18.70;;
12925;SDS011;6529;50.566;9.774;2022-10-13T08:28:43;27.37;;;14.43;;
12925;SDS011;6529;50.566;9.774;2022-10-13T08:31:09;26.70;;;15.00;;
12925;SDS011;6529;50.566;9.774;2022-10-13T08:33:35;28.90;;;16.13;;
12925;SDS011;6529;50.566;9.774;2022-10-13T08:36:01;27.60;;;15.73;;
12925;SDS011;6529;50.566;9.774;2022-10-13T08:38:26;30.83;;;15.23;;
12925;SDS011;6529;50.566;9.774;2022-10-13T08:40:52;25.70;;;14.03;;
12925;SDS011;6529;50.566;9.774;2022-10-13T08:43:20;27.27;;;14.10;;
12925;SDS011;6529;50.566;9.774;2022-10-13T08:45:51;24.47;;;13.70;;
12925;SDS011;6529;50.566;9.774;2022-10-13T08:48:19;26.00;;;15.00;;
12925;SDS011;6529;50.566;9.774;2022-10-13T08:50:46;28.40;;;14.40;;
12925;SDS011;6529;50.566;9.774;2022-10-13T08:53:18;26.97;;;14.33;;
12925;SDS011;6529;50.566;9.774;2022-10-13T08:55:56;24.47;;;14.27;;
12925;SDS011;6529;50.566;9.774;2022-10-13T08:58:24;26.37;;;13.57;;
12925;SDS011;6529;50.566;9.774;2022-10-13T09:11:24;21.97;;;13.80;;
12925;SDS011;6529;50.566;9.774;2022-10-13T09:13:52;22.73;;;13.47;;
12925;SDS011;6529;50.566;9.774;2022-10-13T09:16:25;20.30;;;12.57;;
12925;SDS011;6529;50.566;9.774;2022-10-13T09:18:51;24.90;;;13.43;;
12925;SDS011;6529;50.566;9.774;2022-10-13T09:21:18;23.80;;;13.43;;
12925;SDS011;6529;50.566;9.774;2022-10-13T09:23:44;21.57;;;13.27;;
12925;SDS011;6529;50.566;9.774;2022-10-13T09:26:14;18.47;;;12.17;;
12925;SDS011;6529;50.566;9.774;2022-10-13T09:28:41;21.97;;;13.10;;
12925;SDS011;6529;50.566;9.774;2022-10-13T09:31:15;20.07;;;12.87;;
12925;SDS011;6529;50.566;9.774;2022-10-13T09:33:41;18.17;;;11.90;;
12925;SDS011;6529;50.566;9.774;2022-10-13T12:48:49;10.03;;;5.73;;
12925;SDS011;6529;50.566;9.774;2022-10-13T12:51:22;9.93;;;6.10;;
12925;SDS011;6529;50.566;9.774;2022-10-13T12:53:50;10.03;;;5.83;;
12925;SDS011;6529;50.566;9.774;2022-10-13T12:56:38;8.33;;;6.73;;
12925;SDS011;6529;50.566;9.774;2022-10-13T12:59:03;9.63;;;6.23;;
12925;SDS011;6529;50.566;9.774;2022-10-13T13:01:30;10.47;;;5.90;;
12925;SDS011;6529;50.566;9.774;2022-10-13T13:04:01;6.10;;;5.50;;
12925;SDS011;6529;50.566;9.774;2022-10-13T13:06:31;6.53;;;4.77;;
12925;SDS011;6529;50.566;9.774;2022-10-13T13:11:35;9.80;;;5.37;;
12925;SDS011;6529;50.566;9.774;2022-10-13T13:14:20;9.33;;;5.70;;
12925;SDS011;6529;50.566;9.774;2022-10-13T13:19:32;9.23;;;5.90;;
12925;SDS011;6529;50.566;9.774;2022-10-13T13:21:58;9.67;;;5.67;;
12925;SDS011;6529;50.566;9.774;2022-10-13T13:24:25;9.93;;;6.20;;
12925;SDS011;6529;50.566;9.774;2022-10-13T13:26:51;9.80;;;5.90;;
12925;SDS011;6529;50.566;9.774;2022-10-13T13:29:17;8.87;;;5.80;;
12925;SDS011;6529;50.566;9.774;2022-10-13T13:31:43;9.30;;;6.13;;
12925;SDS011;6529;50.566;9.774;2022-10-13T13:34:08;8.23;;;5.93;;
12925;SDS011;6529;50.566;9.774;2022-10-13T13:36:34;7.53;;;6.00;;
12925;SDS011;6529;50.566;9.774;2022-10-13T13:39:00;7.23;;;5.40;;
12925;SDS011;6529;50.566;9.774;2022-10-13T13:41:26;9.07;;;5.63;;
12925;SDS011;6529;50.566;9.774;2022-10-13T13:43:55;8.40;;;6.00;;
12925;SDS011;6529;50.566;9.774;2022-10-13T13:46:22;7.50;;;5.67;;
12925;SDS011;6529;50.566;9.774;2022-10-13T13:48:48;10.03;;;6.57;;
12925;SDS011;6529;50.566;9.774;2022-10-13T13:51:15;9.63;;;7.30;;
12925;SDS011;6529;50.566;9.774;2022-10-13T13:53:41;8.50;;;6.47;;
12925;SDS011;6529;50.566;9.774;2022-10-13T13:56:10;9.23;;;6.73;;
12925;SDS011;6529;50.566;9.774;2022-10-13T13:58:36;10.37;;;6.93;;
12925;SDS011;6529;50.566;9.774;2022-10-13T14:01:02;9.63;;;6.77;;
12925;SDS011;6529;50.566;9.774;2022-10-13T14:03:30;11.20;;;7.90;;
12925;SDS011;6529;50.566;9.774;2022-10-13T14:05:56;9.30;;;6.77;;
12925;SDS011;6529;50.566;9.774;2022-10-13T14:08:22;10.57;;;6.93;;
12925;SDS011;6529;50.566;9.774;2022-10-13T14:10:48;9.93;;;6.90;;
12925;SDS011;6529;50.566;9.774;2022-10-13T14:13:14;16.57;;;10.20;;
12925;SDS011;6529;50.566;9.774;2022-10-13T14:15:40;12.80;;;8.60;;
12925;SDS011;6529;50.566;9.774;2022-10-13T14:18:06;10.57;;;7.47;;
12925;SDS011;6529;50.566;9.774;2022-10-13T14:20:32;9.87;;;8.00;;
12925;SDS011;6529;50.566;9.774;2022-10-13T14:22:58;9.37;;;7.70;;
12925;SDS011;6529;50.566;9.774;2022-10-13T14:25:24;8.80;;;7.20;;
12925;SDS011;6529;50.566;9.774;2022-10-13T14:27:50;10.47;;;7.27;;
12925;SDS011;6529;50.566;9.774;2022-10-13T14:30:30;12.50;;;7.33;;
12925;SDS011;6529;50.566;9.774;2022-10-13T14:32:56;11.03;;;7.40;;
12925;SDS011;6529;50.566;9.774;2022-10-13T14:35:22;9.80;;;7.33;;
12925;SDS011;6529;50.566;9.774;2022-10-13T14:37:48;10.87;;;7.70;;
12925;SDS011;6529;50.566;9.774;2022-10-13T14:40:14;12.03;;;7.53;;
12925;SDS011;6529;50.566;9.774;2022-10-13T14:42:40;11.37;;;7.90;;
12925;SDS011;6529;50.566;9.774;2022-10-13T14:45:06;12.00;;;8.13;;
12925;SDS011;6529;50.566;9.774;2022-10-13T14:47:32;10.80;;;8.47;;
12925;SDS011;6529;50.566;9.774;2022-10-13T14:49:59;11.37;;;7.47;;
12925;SDS011;6529;50.566;9.774;2022-10-13T14:52:27;13.87;;;8.60;;
12925;SDS011;6529;50.566;9.774;2022-10-13T14:54:53;12.23;;;8.83;;
12925;SDS011;6529;50.566;9.774;2022-10-13T14:57:19;12.40;;;8.50;;
12925;SDS011;6529;50.566;9.774;2022-10-13T14:59:45;11.80;;;9.13;;
12925;SDS011;6529;50.566;9.774;2022-10-13T15:02:12;11.57;;;8.30;;
12925;SDS011;6529;50.566;9.774;2022-10-13T15:04:38;13.37;;;9.13;;
12925;SDS011;6529;50.566;9.774;2022-10-13T15:07:04;12.00;;;9.17;;
12925;SDS011;6529;50.566;9.774;2022-10-13T15:09:30;13.80;;;9.50;;
12925;SDS011;6529;50.566;9.774;2022-10-13T15:11:56;11.70;;;9.03;;
12925;SDS011;6529;50.566;9.774;2022-10-13T15:14:22;15.23;;;9.20;;
12925;SDS011;6529;50.566;9.774;2022-10-13T15:16:48;14.17;;;9.63;;
12925;SDS011;6529;50.566;9.774;2022-10-13T15:19:14;13.33;;;9.10;;
12925;SDS011;6529;50.566;9.774;2022-10-13T15:21:40;14.80;;;9.33;;
12925;SDS011;6529;50.566;9.774;2022-10-13T15:24:06;15.23;;;9.37;;
12925;SDS011;6529;50.566;9.774;2022-10-13T15:26:33;12.57;;;9.13;;
12925;SDS011;6529;50.566;9.774;2022-10-13T15:32:08;12.83;;;8.90;;
12925;SDS011;6529;50.566;9.774;2022-10-13T15:34:34;12.50;;;8.93;;
12925;SDS011;6529;50.566;9.774;2022-10-13T15:37:06;12.40;;;8.50;;
12925;SDS011;6529;50.566;9.774;2022-10-13T15:39:32;12.83;;;8.80;;
12925;SDS011;6529;50.566;9.774;2022-10-13T15:41:58;12.13;;;8.70;;
12925;SDS011;6529;50.566;9.774;2022-10-13T15:44:24;12.40;;;8.60;;
12925;SDS011;6529;50.566;9.774;2022-10-13T15:46:50;11.33;;;8.77;;
12925;SDS011;6529;50.566;9.774;2022-10-13T15:49:21;10.90;;;8.10;;
12925;SDS011;6529;50.566;9.774;2022-10-13T15:51:47;14.40;;;8.73;;
12925;SDS011;6529;50.566;9.774;2022-10-13T15:54:13;12.30;;;8.70;;
12925;SDS011;6529;50.566;9.774;2022-10-13T15:56:39;13.40;;;8.47;;
12925;SDS011;6529;50.566;9.774;2022-10-13T15:59:05;12.27;;;8.70;;
12925;SDS011;6529;50.566;9.774;2022-10-13T16:01:32;14.23;;;9.00;;
12925;SDS011;6529;50.566;9.774;2022-10-13T16:03:58;11.67;;;8.50;;
12925;SDS011;6529;50.566;9.774;2022-10-13T16:06:24;12.07;;;8.23;;
12925;SDS011;6529;50.566;9.774;2022-10-13T16:08:50;11.90;;;8.27;;
12925;SDS011;6529;50.566;9.774;2022-10-13T16:11:17;12.47;;;8.70;;
12925;SDS011;6529;50.566;9.774;2022-10-13T16:13:47;12.47;;;8.80;;
12925;SDS011;6529;50.566;9.774;2022-10-13T16:16:14;15.00;;;9.10;;
12925;SDS011;6529;50.566;9.774;2022-10-13T16:18:40;12.40;;;9.50;;
12925;SDS011;6529;50.566;9.774;2022-10-13T16:21:12;13.57;;;9.67;;
12925;SDS011;6529;50.566;9.774;2022-10-13T16:23:39;13.43;;;9.03;;
12925;SDS011;6529;50.566;9.774;2022-10-13T16:26:05;13.63;;;9.73;;
12925;SDS011;6529;50.566;9.774;2022-10-13T16:28:35;14.90;;;10.00;;
12925;SDS011;6529;50.566;9.774;2022-10-13T16:31:01;12.23;;;8.87;;
12925;SDS011;6529;50.566;9.774;2022-10-13T16:33:27;15.50;;;9.47;;
12925;SDS011;6529;50.566;9.774;2022-10-13T16:36:07;13.40;;;9.20;;
12925;SDS011;6529;50.566;9.774;2022-10-13T16:38:33;13.33;;;9.13;;
12925;SDS011;6529;50.566;9.774;2022-10-13T16:41:06;11.60;;;8.70;;
12925;SDS011;6529;50.566;9.774;2022-10-13T16:43:32;16.00;;;12.50;;
12925;SDS011;6529;50.566;9.774;2022-10-13T16:45:59;14.50;;;9.87;;
12925;SDS011;6529;50.566;9.774;2022-10-13T16:48:26;12.33;;;9.20;;
12925;SDS011;6529;50.566;9.774;2022-10-13T16:50:54;12.63;;;9.50;;
12925;SDS011;6529;50.566;9.774;2022-10-13T16:53:19;12.23;;;9.00;;
12925;SDS011;6529;50.566;9.774;2022-10-13T16:55:46;11.80;;;9.10;;
12925;SDS011;6529;50.566;9.774;2022-10-13T16:58:12;13.83;;;8.77;;
12925;SDS011;6529;50.566;9.774;2022-10-13T17:00:38;11.37;;;9.00;;
12925;SDS011;6529;50.566;9.774;2022-10-13T17:03:04;14.53;;;9.30;;
12925;SDS011;6529;50.566;9.774;2022-10-13T17:05:31;13.23;;;9.03;;
12925;SDS011;6529;50.566;9.774;2022-10-13T17:07:57;16.47;;;10.30;;
12925;SDS011;6529;50.566;9.774;2022-10-13T17:10:23;15.63;;;9.80;;
12925;SDS011;6529;50.566;9.774;2022-10-13T17:12:49;14.80;;;9.93;;
12925;SDS011;6529;50.566;9.774;2022-10-13T17:15:17;12.37;;;8.70;;
12925;SDS011;6529;50.566;9.774;2022-10-13T17:17:43;14.07;;;9.30;;
12925;SDS011;6529;50.566;9.774;2022-10-13T17:20:09;12.17;;;9.40;;
12925;SDS011;6529;50.566;9.774;2022-10-13T17:22:37;15.23;;;10.53;;
12925;SDS011;6529;50.566;9.774;2022-10-13T17:25:03;14.03;;;9.77;;
12925;SDS011;6529;50.566;9.774;2022-10-13T17:27:29;15.30;;;10.83;;
12925;SDS011;6529;50.566;9.774;2022-10-13T17:29:55;16.20;;;10.57;;
12925;SDS011;6529;50.566;9.774;2022-10-13T17:32:21;15.23;;;11.13;;
12925;SDS011;6529;50.566;9.774;2022-10-13T17:34:47;16.73;;;11.17;;
12925;SDS011;6529;50.566;9.774;2022-10-13T17:37:13;15.00;;;9.87;;
12925;SDS011;6529;50.566;9.774;2022-10-13T17:39:40;14.90;;;10.50;;
12925;SDS011;6529;50.566;9.774;2022-10-13T17:42:06;14.33;;;10.10;;
12925;SDS011;6529;50.566;9.774;2022-10-13T17:44:32;15.70;;;10.83;;
12925;SDS011;6529;50.566;9.774;2022-10-13T17:46:58;14.57;;;10.17;;
12925;SDS011;6529;50.566;9.774;2022-10-13T17:49:30;17.37;;;11.50;;
12925;SDS011;6529;50.566;9.774;2022-10-13T17:51:56;16.57;;;10.63;;
12925;SDS011;6529;50.566;9.774;2022-10-13T17:54:22;16.30;;;10.50;;
12925;SDS011;6529;50.566;9.774;2022-10-13T17:56:49;15.73;;;11.10;;
12925;SDS011;6529;50.566;9.774;2022-10-13T17:59:16;15.40;;;11.47;;
12925;SDS011;6529;50.566;9.774;2022-10-13T18:01:42;17.67;;;11.67;;
12925;SDS011;6529;50.566;9.774;2022-10-13T18:04:09;16.30;;;11.23;;
12925;SDS011;6529;50.566;9.774;2022-10-13T18:06:36;17.10;;;12.17;;
12925;SDS011;6529;50.566;9.774;2022-10-13T18:09:09;15.70;;;11.30;;
12925;SDS011;6529;50.566;9.774;2022-10-13T18:11:35;15.27;;;11.53;;
12925;SDS011;6529;50.566;9.774;2022-10-13T18:14:01;14.80;;;11.17;;
12925;SDS011;6529;50.566;9.774;2022-10-13T18:16:28;16.23;;;10.93;;
12925;SDS011;6529;50.566;9.774;2022-10-13T18:18:54;17.53;;;11.37;;
12925;SDS011;6529;50.566;9.774;2022-10-13T18:21:20;17.60;;;12.37;;
12925;SDS011;6529;50.566;9.774;2022-10-13T18:23:48;17.93;;;12.30;;
12925;SDS011;6529;50.566;9.774;2022-10-13T18:26:15;17.93;;;12.63;;
12925;SDS011;6529;50.566;9.774;2022-10-13T18:28:42;17.03;;;12.30;;
12925;SDS011;6529;50.566;9.774;2022-10-13T18:31:09;17.57;;;12.33;;
12925;SDS011;6529;50.566;9.774;2022-10-13T18:33:36;20.40;;;12.47;;
12925;SDS011;6529;50.566;9.774;2022-10-13T18:38:41;17.53;;;12.57;;
12925;SDS011;6529;50.566;9.774;2022-10-13T18:41:07;16.87;;;11.90;;
12925;SDS011;6529;50.566;9.774;2022-10-13T18:43:33;21.13;;;12.37;;
12925;SDS011;6529;50.566;9.774;2022-10-13T18:45:59;18.37;;;12.50;;